sensor_id;sensor_type;location;lat;lon;timestamp;P1;durP1;ratioP1;P2;durP2;ratioP2
52790;SDS011;41253;46.856;-71.574;2022-07-22T14:42:09;5.40;;;4.07;;
52790;SDS011;41253;46.856;-71.574;2022-07-22T14:44:36;5.65;;;4.18;;
52790;SDS011;41253;46.856;-71.574;2022-07-22T14:47:03;5.82;;;4.40;;
52790;SDS011;41253;46.856;-71.574;2022-07-22T14:49:29;4.28;;;3.53;;
52790;SDS011;41253;46.856;-71.574;2022-07-22T14:51:55;5.57;;;3.85;;
52790;SDS011;41253;46.856;-71.574;2022-07-22T14:54:22;5.30;;;3.67;;
52790;SDS011;41253;46.856;-71.574;2022-07-22T14:56:48;4.00;;;3.60;;
52790;SDS011;41253;46.856;-71.574;2022-07-22T14:59:15;6.05;;;3.97;;
52790;SDS011;41253;46.856;-71.574;2022-07-22T15:01:41;5.07;;;3.88;;
52790;SDS011;41253;46.856;-71.574;2022-07-22T15:04:07;4.82;;;3.90;;
52790;SDS011;41253;46.856;-71.574;2022-07-22T15:06:33;5.32;;;4.10;;
52790;SDS011;41253;46.856;-71.574;2022-07-22T15:09:00;5.05;;;4.10;;
52790;SDS011;41253;46.856;-71.574;2022-07-22T15:11:27;4.47;;;4.00;;
52790;SDS011;41253;46.856;-71.574;2022-07-22T15:13:53;5.03;;;4.40;;
52790;SDS011;41253;46.856;-71.574;2022-07-22T15:16:19;5.13;;;4.10;;
52790;SDS011;41253;46.856;-71.574;2022-07-22T15:18:46;6.25;;;4.30;;
52790;SDS011;41253;46.856;-71.574;2022-07-22T15:21:12;4.82;;;4.22;;
52790;SDS011;41253;46.856;-71.574;2022-07-22T15:23:38;4.38;;;3.88;;
52790;SDS011;41253;46.856;-71.574;2022-07-22T15:26:05;4.20;;;3.80;;
52790;SDS011;41253;46.856;-71.574;2022-07-22T15:28:31;4.40;;;4.00;;
52790;SDS011;41253;46.856;-71.574;2022-07-22T15:30:58;4.82;;;4.18;;
52790;SDS011;41253;46.856;-71.574;2022-07-22T15:33:25;4.47;;;4.07;;
52790;SDS011;41253;46.856;-71.574;2022-07-22T15:35:51;4.07;;;3.75;;
52790;SDS011;41253;46.856;-71.574;2022-07-22T15:38:18;5.40;;;4.60;;
52790;SDS011;41253;46.856;-71.574;2022-07-22T15:40:44;5.80;;;4.28;;
52790;SDS011;41253;46.856;-71.574;2022-07-22T15:43:10;5.47;;;4.20;;
52790;SDS011;41253;46.856;-71.574;2022-07-22T15:45:37;6.25;;;3.63;;
52790;SDS011;41253;46.856;-71.574;2022-07-22T15:48:04;4.88;;;4.40;;
52790;SDS011;41253;46.856;-71.574;2022-07-22T15:50:31;5.43;;;3.83;;
52790;SDS011;41253;46.856;-71.574;2022-07-22T15:52:57;4.20;;;3.80;;
52790;SDS011;41253;46.856;-71.574;2022-07-22T15:55:24;4.95;;;4.45;;
52790;SDS011;41253;46.856;-71.574;2022-07-22T15:57:50;5.47;;;4.15;;
52790;SDS011;41253;46.856;-71.574;2022-07-22T16:00:36;5.13;;;4.18;;
52790;SDS011;41253;46.856;-71.574;2022-07-22T16:03:02;4.85;;;4.22;;
52790;SDS011;41253;46.856;-71.574;2022-07-22T16:05:29;4.35;;;3.95;;
52790;SDS011;41253;46.856;-71.574;2022-07-22T16:07:55;5.05;;;4.45;;
52790;SDS011;41253;46.856;-71.574;2022-07-22T16:10:22;5.57;;;4.22;;
52790;SDS011;41253;46.856;-71.574;2022-07-22T16:12:48;4.35;;;3.95;;
52790;SDS011;41253;46.856;-71.574;2022-07-22T16:15:15;6.85;;;4.70;;
52790;SDS011;41253;46.856;-71.574;2022-07-22T16:17:41;4.40;;;4.00;;
52790;SDS011;41253;46.856;-71.574;2022-07-22T16:20:08;4.93;;;4.53;;
52790;SDS011;41253;46.856;-71.574;2022-07-22T16:22:35;5.68;;;4.55;;
52790;SDS011;41253;46.856;-71.574;2022-07-22T16:25:02;4.93;;;4.53;;
52790;SDS011;41253;46.856;-71.574;2022-07-22T16:27:29;7.93;;;4.68;;
52790;SDS011;41253;46.856;-71.574;2022-07-22T16:29:56;5.53;;;4.57;;
52790;SDS011;41253;46.856;-71.574;2022-07-22T16:32:23;6.85;;;4.63;;
52790;SDS011;41253;46.856;-71.574;2022-07-22T16:34:49;4.93;;;4.50;;
52790;SDS011;41253;46.856;-71.574;2022-07-22T16:37:15;5.70;;;4.95;;
52790;SDS011;41253;46.856;-71.574;2022-07-22T16:39:44;5.07;;;4.57;;
52790;SDS011;41253;46.856;-71.574;2022-07-22T16:42:10;6.55;;;5.00;;
52790;SDS011;41253;46.856;-71.574;2022-07-22T16:44:37;5.70;;;5.20;;
52790;SDS011;41253;46.856;-71.574;2022-07-22T16:47:03;5.90;;;5.32;;
52790;SDS011;41253;46.856;-71.574;2022-07-22T16:49:33;5.63;;;5.10;;
52790;SDS011;41253;46.856;-71.574;2022-07-22T16:52:00;5.82;;;5.28;;
52790;SDS011;41253;46.856;-71.574;2022-07-22T16:54:27;8.40;;;5.38;;
52790;SDS011;41253;46.856;-71.574;2022-07-22T16:56:53;7.43;;;5.35;;
52790;SDS011;41253;46.856;-71.574;2022-07-22T16:59:20;5.60;;;5.10;;
52790;SDS011;41253;46.856;-71.574;2022-07-22T17:01:46;5.90;;;5.30;;
52790;SDS011;41253;46.856;-71.574;2022-07-22T17:04:12;6.30;;;5.50;;
52790;SDS011;41253;46.856;-71.574;2022-07-22T17:06:38;6.00;;;5.47;;
52790;SDS011;41253;46.856;-71.574;2022-07-22T17:09:05;7.20;;;5.47;;
52790;SDS011;41253;46.856;-71.574;2022-07-22T17:11:33;6.80;;;6.20;;
52790;SDS011;41253;46.856;-71.574;2022-07-22T17:13:59;6.70;;;6.07;;
52790;SDS011;41253;46.856;-71.574;2022-07-22T17:16:25;8.10;;;5.72;;
52790;SDS011;41253;46.856;-71.574;2022-07-22T17:18:52;12.65;;;6.25;;
52790;SDS011;41253;46.856;-71.574;2022-07-22T17:21:19;6.18;;;5.55;;
52790;SDS011;41253;46.856;-71.574;2022-07-22T17:23:45;7.05;;;6.35;;
52790;SDS011;41253;46.856;-71.574;2022-07-22T17:26:11;6.80;;;5.80;;
52790;SDS011;41253;46.856;-71.574;2022-07-22T17:28:38;6.55;;;5.95;;
52790;SDS011;41253;46.856;-71.574;2022-07-22T17:31:07;7.00;;;6.20;;
52790;SDS011;41253;46.856;-71.574;2022-07-22T17:33:34;5.88;;;5.35;;
52790;SDS011;41253;46.856;-71.574;2022-07-22T17:36:00;9.85;;;6.53;;
52790;SDS011;41253;46.856;-71.574;2022-07-22T17:38:27;8.10;;;6.57;;
52790;SDS011;41253;46.856;-71.574;2022-07-22T17:40:53;7.68;;;6.30;;
52790;SDS011;41253;46.856;-71.574;2022-07-22T17:43:19;7.70;;;6.90;;
52790;SDS011;41253;46.856;-71.574;2022-07-22T17:45:46;6.63;;;6.03;;
52790;SDS011;41253;46.856;-71.574;2022-07-22T17:48:12;7.53;;;6.82;;
52790;SDS011;41253;46.856;-71.574;2022-07-22T17:50:39;7.95;;;6.65;;
52790;SDS011;41253;46.856;-71.574;2022-07-22T17:53:06;7.50;;;6.60;;
52790;SDS011;41253;46.856;-71.574;2022-07-22T17:55:33;7.95;;;7.03;;
52790;SDS011;41253;46.856;-71.574;2022-07-22T17:58:00;7.38;;;6.68;;
52790;SDS011;41253;46.856;-71.574;2022-07-22T18:00:27;7.53;;;6.82;;
52790;SDS011;41253;46.856;-71.574;2022-07-22T18:02:56;7.88;;;7.10;;
52790;SDS011;41253;46.856;-71.574;2022-07-22T18:05:26;8.68;;;7.80;;
52790;SDS011;41253;46.856;-71.574;2022-07-22T18:07:52;8.82;;;7.93;;
52790;SDS011;41253;46.856;-71.574;2022-07-22T18:10:19;7.00;;;6.30;;
52790;SDS011;41253;46.856;-71.574;2022-07-22T18:12:45;8.77;;;7.30;;
52790;SDS011;41253;46.856;-71.574;2022-07-22T18:15:14;7.95;;;7.10;;
52790;SDS011;41253;46.856;-71.574;2022-07-22T18:17:41;7.95;;;7.15;;
52790;SDS011;41253;46.856;-71.574;2022-07-22T18:20:08;8.10;;;7.30;;
52790;SDS011;41253;46.856;-71.574;2022-07-22T18:22:35;8.18;;;7.47;;
52790;SDS011;41253;46.856;-71.574;2022-07-22T18:25:03;8.45;;;7.63;;
52790;SDS011;41253;46.856;-71.574;2022-07-22T18:27:30;8.35;;;7.55;;
52790;SDS011;41253;46.856;-71.574;2022-07-22T18:29:56;8.77;;;7.85;;
52790;SDS011;41253;46.856;-71.574;2022-07-22T18:32:23;9.13;;;8.13;;
52790;SDS011;41253;46.856;-71.574;2022-07-22T18:34:49;9.02;;;8.10;;
52790;SDS011;41253;46.856;-71.574;2022-07-22T18:37:16;7.90;;;7.13;;
52790;SDS011;41253;46.856;-71.574;2022-07-22T18:39:42;8.27;;;7.47;;
52790;SDS011;41253;46.856;-71.574;2022-07-22T18:42:08;7.72;;;7.03;;
52790;SDS011;41253;46.856;-71.574;2022-07-22T18:44:35;8.75;;;7.90;;
52790;SDS011;41253;46.856;-71.574;2022-07-22T18:47:02;8.25;;;7.30;;
52790;SDS011;41253;46.856;-71.574;2022-07-22T18:49:28;9.02;;;8.10;;
52790;SDS011;41253;46.856;-71.574;2022-07-22T18:51:55;8.60;;;7.70;;
52790;SDS011;41253;46.856;-71.574;2022-07-22T18:54:22;8.02;;;7.32;;
52790;SDS011;41253;46.856;-71.574;2022-07-22T18:56:48;8.23;;;7.47;;
52790;SDS011;41253;46.856;-71.574;2022-07-22T18:59:16;8.25;;;7.07;;
52790;SDS011;41253;46.856;-71.574;2022-07-22T19:01:42;8.18;;;7.47;;
52790;SDS011;41253;46.856;-71.574;2022-07-22T19:04:09;9.50;;;8.60;;
52790;SDS011;41253;46.856;-71.574;2022-07-22T19:06:35;8.95;;;8.10;;
52790;SDS011;41253;46.856;-71.574;2022-07-22T19:09:01;8.70;;;7.88;;
52790;SDS011;41253;46.856;-71.574;2022-07-22T19:11:28;8.02;;;7.32;;
52790;SDS011;41253;46.856;-71.574;2022-07-22T19:13:54;9.13;;;8.00;;
52790;SDS011;41253;46.856;-71.574;2022-07-22T19:16:20;9.20;;;8.30;;
52790;SDS011;41253;46.856;-71.574;2022-07-22T19:18:47;9.23;;;8.43;;
52790;SDS011;41253;46.856;-71.574;2022-07-22T19:21:13;8.82;;;8.07;;
52790;SDS011;41253;46.856;-71.574;2022-07-22T19:23:39;9.18;;;8.27;;
52790;SDS011;41253;46.856;-71.574;2022-07-22T19:26:06;9.50;;;8.23;;
52790;SDS011;41253;46.856;-71.574;2022-07-22T19:28:32;9.32;;;8.38;;
52790;SDS011;41253;46.856;-71.574;2022-07-22T19:31:00;8.60;;;7.80;;
52790;SDS011;41253;46.856;-71.574;2022-07-22T19:33:27;9.55;;;8.40;;
52790;SDS011;41253;46.856;-71.574;2022-07-22T19:35:53;9.20;;;8.30;;
52790;SDS011;41253;46.856;-71.574;2022-07-22T19:38:20;9.43;;;8.40;;
52790;SDS011;41253;46.856;-71.574;2022-07-22T19:40:46;10.02;;;9.07;;
52790;SDS011;41253;46.856;-71.574;2022-07-22T19:43:12;10.65;;;9.50;;
52790;SDS011;41253;46.856;-71.574;2022-07-22T19:45:39;15.02;;;9.60;;
52790;SDS011;41253;46.856;-71.574;2022-07-22T19:48:06;11.43;;;9.73;;
52790;SDS011;41253;46.856;-71.574;2022-07-22T19:50:33;11.77;;;10.68;;
52790;SDS011;41253;46.856;-71.574;2022-07-22T19:53:00;12.50;;;10.32;;
52790;SDS011;41253;46.856;-71.574;2022-07-22T19:55:27;12.27;;;10.93;;
52790;SDS011;41253;46.856;-71.574;2022-07-22T19:57:53;12.00;;;10.90;;
52790;SDS011;41253;46.856;-71.574;2022-07-22T20:00:20;18.38;;;11.02;;
52790;SDS011;41253;46.856;-71.574;2022-07-22T20:02:46;12.43;;;10.77;;
52790;SDS011;41253;46.856;-71.574;2022-07-22T20:05:13;11.45;;;10.25;;
52790;SDS011;41253;46.856;-71.574;2022-07-22T20:07:39;12.75;;;11.50;;
52790;SDS011;41253;46.856;-71.574;2022-07-22T20:10:06;14.38;;;11.57;;
52790;SDS011;41253;46.856;-71.574;2022-07-22T20:12:33;12.75;;;11.32;;
52790;SDS011;41253;46.856;-71.574;2022-07-22T20:14:59;12.30;;;11.00;;
52790;SDS011;41253;46.856;-71.574;2022-07-22T20:17:25;12.40;;;11.20;;
52790;SDS011;41253;46.856;-71.574;2022-07-22T20:19:52;12.63;;;11.35;;
52790;SDS011;41253;46.856;-71.574;2022-07-22T20:22:18;13.70;;;12.40;;
52790;SDS011;41253;46.856;-71.574;2022-07-22T20:24:45;13.27;;;11.98;;
52790;SDS011;41253;46.856;-71.574;2022-07-22T20:27:11;15.52;;;13.80;;
52790;SDS011;41253;46.856;-71.574;2022-07-22T20:29:38;14.27;;;12.88;;
52790;SDS011;41253;46.856;-71.574;2022-07-22T20:32:04;14.32;;;12.93;;
52790;SDS011;41253;46.856;-71.574;2022-07-22T20:34:30;13.48;;;12.07;;
52790;SDS011;41253;46.856;-71.574;2022-07-22T20:36:57;13.68;;;12.27;;
52790;SDS011;41253;46.856;-71.574;2022-07-22T20:39:25;14.15;;;12.68;;
52790;SDS011;41253;46.856;-71.574;2022-07-22T20:41:52;13.77;;;12.38;;
52790;SDS011;41253;46.856;-71.574;2022-07-22T20:44:19;13.75;;;12.45;;
52790;SDS011;41253;46.856;-71.574;2022-07-22T20:46:45;15.05;;;13.55;;
52790;SDS011;41253;46.856;-71.574;2022-07-22T20:49:12;15.68;;;13.88;;
52790;SDS011;41253;46.856;-71.574;2022-07-22T20:51:38;14.63;;;13.13;;
52790;SDS011;41253;46.856;-71.574;2022-07-22T20:54:04;18.02;;;16.20;;
52790;SDS011;41253;46.856;-71.574;2022-07-22T20:56:31;15.65;;;14.02;;
52790;SDS011;41253;46.856;-71.574;2022-07-22T20:58:57;15.63;;;14.02;;
52790;SDS011;41253;46.856;-71.574;2022-07-22T21:01:24;17.63;;;14.45;;
52790;SDS011;41253;46.856;-71.574;2022-07-22T21:03:50;16.20;;;14.50;;
52790;SDS011;41253;46.856;-71.574;2022-07-22T21:06:16;16.02;;;14.35;;
52790;SDS011;41253;46.856;-71.574;2022-07-22T21:08:44;15.80;;;13.93;;
52790;SDS011;41253;46.856;-71.574;2022-07-22T21:11:10;15.85;;;14.07;;
52790;SDS011;41253;46.856;-71.574;2022-07-22T21:13:37;15.38;;;13.80;;
52790;SDS011;41253;46.856;-71.574;2022-07-22T21:16:03;15.23;;;13.63;;
52790;SDS011;41253;46.856;-71.574;2022-07-22T21:18:30;17.20;;;14.27;;
52790;SDS011;41253;46.856;-71.574;2022-07-22T21:20:56;14.98;;;13.48;;
52790;SDS011;41253;46.856;-71.574;2022-07-22T21:23:22;17.90;;;14.57;;
52790;SDS011;41253;46.856;-71.574;2022-07-22T21:25:49;16.77;;;15.07;;
52790;SDS011;41253;46.856;-71.574;2022-07-22T21:28:16;16.05;;;14.45;;
52790;SDS011;41253;46.856;-71.574;2022-07-22T21:30:42;15.27;;;13.73;;
52790;SDS011;41253;46.856;-71.574;2022-07-22T21:33:08;15.77;;;13.93;;
52790;SDS011;41253;46.856;-71.574;2022-07-22T21:35:35;15.25;;;13.73;;
52790;SDS011;41253;46.856;-71.574;2022-07-22T21:38:02;13.60;;;12.20;;
52790;SDS011;41253;46.856;-71.574;2022-07-22T21:40:29;13.77;;;12.48;;
52790;SDS011;41253;46.856;-71.574;2022-07-22T21:42:56;14.88;;;12.82;;
52790;SDS011;41253;46.856;-71.574;2022-07-22T21:45:23;14.25;;;12.65;;
52790;SDS011;41253;46.856;-71.574;2022-07-22T21:47:49;13.63;;;12.18;;
52790;SDS011;41253;46.856;-71.574;2022-07-22T21:50:16;13.98;;;12.60;;
52790;SDS011;41253;46.856;-71.574;2022-07-22T21:52:42;16.58;;;13.52;;
52790;SDS011;41253;46.856;-71.574;2022-07-22T21:55:09;14.48;;;12.98;;
52790;SDS011;41253;46.856;-71.574;2022-07-22T21:57:35;15.55;;;13.65;;
52790;SDS011;41253;46.856;-71.574;2022-07-22T22:00:03;14.13;;;12.73;;
52790;SDS011;41253;46.856;-71.574;2022-07-22T22:02:33;14.13;;;12.73;;
52790;SDS011;41253;46.856;-71.574;2022-07-22T22:04:59;15.38;;;12.77;;
52790;SDS011;41253;46.856;-71.574;2022-07-22T22:07:25;15.55;;;12.52;;
52790;SDS011;41253;46.856;-71.574;2022-07-22T22:09:52;14.43;;;11.63;;
52790;SDS011;41253;46.856;-71.574;2022-07-22T22:12:18;12.52;;;11.23;;
52790;SDS011;41253;46.856;-71.574;2022-07-22T22:14:45;12.85;;;11.55;;
52790;SDS011;41253;46.856;-71.574;2022-07-22T22:17:11;13.02;;;11.50;;
52790;SDS011;41253;46.856;-71.574;2022-07-22T22:19:38;11.65;;;10.45;;
52790;SDS011;41253;46.856;-71.574;2022-07-22T22:22:04;13.40;;;11.93;;
52790;SDS011;41253;46.856;-71.574;2022-07-22T22:24:31;12.85;;;10.90;;
52790;SDS011;41253;46.856;-71.574;2022-07-22T22:26:57;14.50;;;11.55;;
52790;SDS011;41253;46.856;-71.574;2022-07-22T22:29:24;12.05;;;10.73;;
52790;SDS011;41253;46.856;-71.574;2022-07-22T22:31:50;13.00;;;11.63;;
52790;SDS011;41253;46.856;-71.574;2022-07-22T22:34:17;13.40;;;11.85;;
52790;SDS011;41253;46.856;-71.574;2022-07-22T22:36:43;13.73;;;11.73;;
52790;SDS011;41253;46.856;-71.574;2022-07-22T22:39:10;13.50;;;11.43;;
52790;SDS011;41253;46.856;-71.574;2022-07-22T22:41:36;15.02;;;11.77;;
52790;SDS011;41253;46.856;-71.574;2022-07-22T22:44:03;12.05;;;10.85;;
52790;SDS011;41253;46.856;-71.574;2022-07-22T22:46:30;12.10;;;10.90;;
52790;SDS011;41253;46.856;-71.574;2022-07-22T22:48:56;12.23;;;10.55;;
52790;SDS011;41253;46.856;-71.574;2022-07-22T22:51:23;11.25;;;10.15;;
52790;SDS011;41253;46.856;-71.574;2022-07-22T22:53:49;12.82;;;10.75;;
52790;SDS011;41253;46.856;-71.574;2022-07-22T22:56:15;13.35;;;10.80;;
52790;SDS011;41253;46.856;-71.574;2022-07-22T22:58:42;16.65;;;11.15;;
52790;SDS011;41253;46.856;-71.574;2022-07-22T23:01:08;12.43;;;10.80;;
52790;SDS011;41253;46.856;-71.574;2022-07-22T23:03:36;14.00;;;11.57;;
52790;SDS011;41253;46.856;-71.574;2022-07-22T23:06:03;13.15;;;11.75;;
52790;SDS011;41253;46.856;-71.574;2022-07-22T23:08:30;13.82;;;11.68;;
52790;SDS011;41253;46.856;-71.574;2022-07-22T23:10:57;12.20;;;10.93;;
52790;SDS011;41253;46.856;-71.574;2022-07-22T23:13:23;14.05;;;10.85;;
52790;SDS011;41253;46.856;-71.574;2022-07-22T23:15:50;13.23;;;11.82;;
52790;SDS011;41253;46.856;-71.574;2022-07-22T23:18:16;14.07;;;11.38;;
52790;SDS011;41253;46.856;-71.574;2022-07-22T23:20:43;12.27;;;10.30;;
52790;SDS011;41253;46.856;-71.574;2022-07-22T23:23:17;12.95;;;11.45;;
52790;SDS011;41253;46.856;-71.574;2022-07-22T23:25:45;13.82;;;12.23;;
52790;SDS011;41253;46.856;-71.574;2022-07-22T23:28:12;13.32;;;11.93;;
52790;SDS011;41253;46.856;-71.574;2022-07-22T23:30:41;13.15;;;11.75;;
52790;SDS011;41253;46.856;-71.574;2022-07-22T23:33:11;13.77;;;12.32;;
52790;SDS011;41253;46.856;-71.574;2022-07-22T23:35:37;13.90;;;12.07;;
52790;SDS011;41253;46.856;-71.574;2022-07-22T23:38:04;16.55;;;12.68;;
52790;SDS011;41253;46.856;-71.574;2022-07-22T23:40:32;14.48;;;12.35;;
52790;SDS011;41253;46.856;-71.574;2022-07-22T23:42:59;14.00;;;12.60;;
52790;SDS011;41253;46.856;-71.574;2022-07-22T23:45:25;16.27;;;13.55;;
52790;SDS011;41253;46.856;-71.574;2022-07-22T23:47:52;7.80;;;6.95;;
52790;SDS011;41253;46.856;-71.574;2022-07-22T23:50:21;8.38;;;6.10;;
52790;SDS011;41253;46.856;-71.574;2022-07-22T23:52:48;7.85;;;5.32;;
52790;SDS011;41253;46.856;-71.574;2022-07-22T23:55:14;6.38;;;5.65;;
52790;SDS011;41253;46.856;-71.574;2022-07-22T23:57:41;8.23;;;5.90;;
